createdAt,value
2023-03-20T00:02:31.497Z,15.90
2023-03-20T00:05:15.495Z,14.00
2023-03-20T00:07:43.963Z,13.00
2023-03-20T00:10:12.605Z,13.60
2023-03-20T00:12:54.021Z,14.70
2023-03-20T00:15:32.578Z,14.90
2023-03-20T00:18:00.893Z,16.70
2023-03-20T00:20:31.574Z,15.50
2023-03-20T00:23:06.096Z,15.50
2023-03-20T00:25:42.649Z,15.00
2023-03-20T00:28:37.733Z,14.40
2023-03-20T00:31:20.987Z,13.60
2023-03-20T00:33:49.774Z,14.80
2023-03-20T00:36:18.922Z,14.40
2023-03-20T00:38:51.702Z,13.70
2023-03-20T00:41:30.422Z,14.10
2023-03-20T00:44:02.590Z,15.10
2023-03-20T00:46:38.793Z,16.40
2023-03-20T00:49:11.981Z,14.30
2023-03-20T00:51:40.223Z,13.60
2023-03-20T00:54:16.097Z,15.40
2023-03-20T00:57:02.431Z,15.10
2023-03-20T00:59:33.824Z,17.30
2023-03-20T01:02:02.665Z,17.00
2023-03-20T01:04:39.196Z,16.80
2023-03-20T01:07:07.979Z,13.60
2023-03-20T01:09:38.245Z,13.70
2023-03-20T01:12:08.061Z,15.50
2023-03-20T01:14:38.272Z,14.70
2023-03-20T01:17:13.487Z,16.20
2023-03-20T01:19:42.733Z,15.10
2023-03-20T01:22:11.707Z,16.50
2023-03-20T01:24:40.814Z,16.00
2023-03-20T01:27:13.970Z,16.00
2023-03-20T01:29:42.309Z,14.40
2023-03-20T01:32:16.022Z,15.80
2023-03-20T01:34:47.772Z,15.10
2023-03-20T01:37:19.009Z,16.90
2023-03-20T01:39:47.961Z,16.20
2023-03-20T01:42:18.349Z,14.00
2023-03-20T01:44:46.959Z,14.40
2023-03-20T01:47:23.942Z,17.40
2023-03-20T01:50:18.690Z,14.90
2023-03-20T01:52:49.133Z,16.90
2023-03-20T01:55:18.083Z,19.60
2023-03-20T01:57:50.994Z,16.00
2023-03-20T02:00:19.935Z,15.50
2023-03-20T02:02:50.884Z,15.30
2023-03-20T02:05:41.443Z,18.20
2023-03-20T02:08:29.382Z,16.80
2023-03-20T02:10:59.799Z,17.60
2023-03-20T02:13:32.596Z,17.50
2023-03-20T02:16:11.492Z,15.70
2023-03-20T02:19:00.834Z,15.00
2023-03-20T02:22:01.454Z,15.80
2023-03-20T02:24:34.978Z,17.70
2023-03-20T02:27:30.054Z,17.80
2023-03-20T02:30:26.460Z,15.90
2023-03-20T02:33:14.690Z,16.20
2023-03-20T02:36:15.654Z,15.00
2023-03-20T02:39:09.306Z,16.90
2023-03-20T02:41:42.695Z,14.80
2023-03-20T02:44:15.427Z,16.80
2023-03-20T02:47:02.448Z,18.40
2023-03-20T02:49:54.025Z,15.20
2023-03-20T02:52:38.501Z,16.40
2023-03-20T02:55:10.920Z,13.70
2023-03-20T02:58:30.621Z,15.80
2023-03-20T03:01:14.925Z,19.90
2023-03-20T03:04:09.668Z,17.60
2023-03-20T03:06:38.714Z,18.60
2023-03-20T03:09:12.617Z,14.60
2023-03-20T03:12:20.370Z,15.10
2023-03-20T03:14:54.136Z,15.30
2023-03-20T03:17:24.693Z,16.40
2023-03-20T03:20:00.958Z,16.90
2023-03-20T03:22:34.637Z,15.70
2023-03-20T03:25:03.217Z,16.70
2023-03-20T03:27:37.474Z,16.00
2023-03-20T03:30:16.855Z,17.40
2023-03-20T03:32:49.644Z,17.10
2023-03-20T03:35:20.692Z,16.80
2023-03-20T03:37:53.456Z,16.60
2023-03-20T03:40:42.478Z,16.30
2023-03-20T03:43:14.438Z,17.00
2023-03-20T03:45:50.924Z,15.50
2023-03-20T03:48:22.649Z,14.70
2023-03-20T03:50:53.529Z,14.50
2023-03-20T03:53:31.348Z,16.50
2023-03-20T03:56:02.628Z,17.60
2023-03-20T03:58:33.766Z,16.30
2023-03-20T04:01:02.911Z,15.60
2023-03-20T04:03:33.171Z,18.60
2023-03-20T04:06:01.680Z,15.90
2023-03-20T04:08:30.519Z,16.10
2023-03-20T04:11:00.960Z,15.30
2023-03-20T04:13:31.617Z,16.90
2023-03-20T04:15:59.961Z,16.90
2023-03-20T04:18:34.061Z,12.90
2023-03-20T04:21:02.515Z,15.80
2023-03-20T04:23:30.597Z,16.00
2023-03-20T04:25:59.716Z,17.00
2023-03-20T04:28:29.666Z,18.80
2023-03-20T04:31:06.801Z,18.80
2023-03-20T04:33:40.307Z,21.50
2023-03-20T04:36:24.580Z,22.10
2023-03-20T04:38:57.651Z,25.10
2023-03-20T04:41:26.820Z,23.50
2023-03-20T04:44:00.428Z,19.40
2023-03-20T04:46:28.678Z,20.50
2023-03-20T04:48:57.214Z,23.40
2023-03-20T04:51:29.041Z,15.10
2023-03-20T04:53:57.320Z,17.90
2023-03-20T04:56:31.103Z,14.40
2023-03-20T04:59:12.633Z,17.20
2023-03-20T05:01:42.213Z,18.90
2023-03-20T05:04:11.570Z,13.60
2023-03-20T05:06:40.104Z,15.60
2023-03-20T05:09:08.731Z,15.50
2023-03-20T05:11:38.294Z,14.60
2023-03-20T05:14:12.180Z,14.30
2023-03-20T05:16:54.471Z,13.40
2023-03-20T05:19:39.052Z,14.60
2023-03-20T05:22:20.080Z,14.40
2023-03-20T05:24:50.784Z,15.00
2023-03-20T05:27:49.169Z,15.70
2023-03-20T05:30:44.652Z,17.20
2023-03-20T05:33:30.885Z,14.80
2023-03-20T05:36:12.288Z,16.00
2023-03-20T05:38:55.994Z,17.00
2023-03-20T05:41:53.618Z,15.60
2023-03-20T05:44:41.933Z,14.80
2023-03-20T05:47:28.632Z,14.50
2023-03-20T05:50:17.248Z,14.20
2023-03-20T05:53:07.589Z,20.20
2023-03-20T05:55:56.590Z,16.60
2023-03-20T05:58:49.898Z,18.00
2023-03-20T06:01:46.756Z,19.20
2023-03-20T06:04:32.497Z,15.70
2023-03-20T06:07:19.112Z,20.10
2023-03-20T06:09:58.396Z,16.80
2023-03-20T06:12:27.584Z,16.50
2023-03-20T06:14:56.185Z,21.50
2023-03-20T06:17:30.567Z,16.10
2023-03-20T06:20:04.828Z,13.70
2023-03-20T06:22:33.468Z,19.50
2023-03-20T06:25:02.439Z,24.80
2023-03-20T06:27:36.974Z,19.10
2023-03-20T06:30:07.941Z,16.50
2023-03-20T06:32:38.003Z,14.70
2023-03-20T06:35:09.449Z,14.50
2023-03-20T06:37:38.882Z,16.70
2023-03-20T06:40:11.661Z,19.90
2023-03-20T06:42:44.289Z,20.60
2023-03-20T06:45:13.536Z,22.00
2023-03-20T06:48:05.935Z,16.40
2023-03-20T06:50:35.855Z,16.90
2023-03-20T06:53:04.475Z,20.10
2023-03-20T06:55:48.199Z,17.30
2023-03-20T06:58:20.926Z,20.10
2023-03-20T07:00:54.849Z,16.50
2023-03-20T07:03:24.205Z,18.30
2023-03-20T07:05:57.920Z,15.00
2023-03-20T07:08:34.723Z,13.90
2023-03-20T07:11:08.082Z,15.30
2023-03-20T07:13:38.880Z,17.80
2023-03-20T07:16:32.524Z,14.80
2023-03-20T07:19:04.205Z,16.70
2023-03-20T07:21:37.886Z,14.60
2023-03-20T07:24:08.671Z,13.10
2023-03-20T07:26:38.289Z,12.10
2023-03-20T07:29:30.401Z,10.70
2023-03-20T07:32:15.452Z,12.70
2023-03-20T07:35:13.449Z,16.00
2023-03-20T07:40:43.452Z,14.80
2023-03-20T07:43:32.829Z,12.70
2023-03-20T07:46:27.678Z,12.80
2023-03-20T07:48:59.608Z,14.80
2023-03-20T07:51:28.085Z,15.40
2023-03-20T07:53:56.903Z,13.30
2023-03-20T07:56:25.636Z,12.80
2023-03-20T07:59:01.700Z,12.10
2023-03-20T08:01:43.004Z,12.90
2023-03-20T08:04:20.122Z,10.10
2023-03-20T08:06:50.329Z,18.50
2023-03-20T08:09:22.348Z,15.60
2023-03-20T08:11:54.678Z,16.40
2023-03-20T08:14:23.862Z,11.60
2023-03-20T08:17:12.410Z,14.70
2023-03-20T08:19:42.675Z,14.90
2023-03-20T08:22:11.974Z,15.50
2023-03-20T08:24:40.266Z,13.50
2023-03-20T08:27:08.942Z,15.00
2023-03-20T08:29:40.770Z,14.50
2023-03-20T08:32:16.294Z,14.10
2023-03-20T08:34:45.341Z,13.90
2023-03-20T08:37:17.113Z,18.00
2023-03-20T08:39:48.637Z,13.30
2023-03-20T08:42:20.685Z,19.10
2023-03-20T08:44:54.027Z,16.60
2023-03-20T08:47:22.603Z,16.80
2023-03-20T08:49:54.465Z,20.00
2023-03-20T08:52:28.024Z,14.00
2023-03-20T08:55:08.039Z,17.50
2023-03-20T08:57:50.136Z,14.00
2023-03-20T09:00:33.940Z,11.00
2023-03-20T09:03:06.721Z,12.70
2023-03-20T09:05:41.355Z,16.00
2023-03-20T09:08:10.063Z,14.40
2023-03-20T09:10:44.971Z,15.30
2023-03-20T09:13:26.618Z,13.80
2023-03-20T09:15:55.780Z,11.90
2023-03-20T09:18:24.625Z,12.10
2023-03-20T09:20:53.571Z,11.20
2023-03-20T09:23:27.544Z,14.60
2023-03-20T09:26:01.297Z,15.60
2023-03-20T09:28:32.484Z,16.10
2023-03-20T09:31:01.474Z,12.90
2023-03-20T09:33:41.671Z,13.00
2023-03-20T09:36:13.418Z,14.10
2023-03-20T09:38:46.410Z,17.40
2023-03-20T09:41:24.660Z,16.80
2023-03-20T09:44:17.076Z,13.70
2023-03-20T09:47:22.380Z,18.10
2023-03-20T09:50:12.984Z,15.90
2023-03-20T09:53:09.471Z,14.50
2023-03-20T09:55:44.123Z,12.00
2023-03-20T09:58:31.939Z,17.50
2023-03-20T10:01:18.436Z,16.90
2023-03-20T10:03:58.742Z,15.50
2023-03-20T10:06:35.081Z,14.90
2023-03-20T10:10:16.672Z,19.00
2023-03-20T10:13:08.236Z,12.60
2023-03-20T10:15:49.828Z,13.90
2023-03-20T10:18:32.552Z,13.40
2023-03-20T10:21:05.704Z,13.70
2023-03-20T10:23:40.902Z,15.10
2023-03-20T10:26:16.628Z,13.80
2023-03-20T10:29:07.383Z,20.40
2023-03-20T10:31:55.856Z,17.50
2023-03-20T10:34:51.676Z,13.70
2023-03-20T10:37:33.640Z,15.30
2023-03-20T10:40:21.644Z,17.70
2023-03-20T10:42:54.334Z,18.10
2023-03-20T10:46:13.765Z,17.70
2023-03-20T10:48:51.635Z,15.50
2023-03-20T10:51:22.700Z,18.60
2023-03-20T10:53:57.065Z,15.30
2023-03-20T10:56:33.180Z,18.20
2023-03-20T10:59:16.510Z,20.70
2023-03-20T11:01:45.568Z,14.20
2023-03-20T11:04:13.937Z,22.00
2023-03-20T11:07:03.925Z,16.60
2023-03-20T11:10:11.122Z,17.80
2023-03-20T11:12:49.749Z,19.30
2023-03-20T11:15:25.065Z,16.80
2023-03-20T11:17:53.510Z,19.10
2023-03-20T11:20:22.030Z,17.00
2023-03-20T11:22:50.572Z,18.40
2023-03-20T11:25:58.712Z,17.70
2023-03-20T11:28:37.734Z,14.60
2023-03-20T11:31:30.991Z,16.90
2023-03-20T11:34:16.309Z,14.20
2023-03-20T11:37:09.186Z,15.50
2023-03-20T11:39:40.304Z,15.50
2023-03-20T11:42:37.798Z,17.80
2023-03-20T11:45:18.523Z,14.70
2023-03-20T11:47:51.655Z,17.90
2023-03-20T11:50:39.951Z,14.90
2023-03-20T11:53:31.980Z,16.40
2023-03-20T11:56:07.435Z,23.10
2023-03-20T11:58:39.916Z,17.20
2023-03-20T12:01:08.724Z,14.20
2023-03-20T12:03:44.147Z,12.60
2023-03-20T12:06:22.166Z,14.30
2023-03-20T12:09:12.087Z,15.20
2023-03-20T12:12:01.122Z,16.00
2023-03-20T12:14:53.699Z,16.00
2023-03-20T12:17:59.691Z,17.00
2023-03-20T12:20:47.337Z,14.70
2023-03-20T12:23:37.277Z,16.00
2023-03-20T12:29:51.410Z,16.80
2023-03-20T12:33:03.717Z,15.80
2023-03-20T12:35:43.150Z,17.90
2023-03-20T12:38:37.597Z,16.20
2023-03-20T12:41:16.022Z,16.60
2023-03-20T12:44:03.344Z,20.10
2023-03-20T12:46:44.880Z,18.60
2023-03-20T12:49:35.083Z,17.10
2023-03-20T12:52:07.916Z,19.00
2023-03-20T12:54:41.319Z,19.70
2023-03-20T12:57:19.050Z,19.40
2023-03-20T13:00:06.007Z,14.60
2023-03-20T13:03:01.149Z,18.80
2023-03-20T13:06:04.561Z,15.80
2023-03-20T13:09:10.236Z,14.10
2023-03-20T13:11:57.343Z,15.70
2023-03-20T13:14:37.997Z,19.70
2023-03-20T13:17:23.454Z,18.50
2023-03-20T13:20:17.092Z,15.80
2023-03-20T13:22:49.605Z,19.40
2023-03-20T13:25:33.048Z,17.00
2023-03-20T13:28:07.176Z,18.50
2023-03-20T13:30:44.492Z,12.60
2023-03-20T13:33:35.078Z,14.90
2023-03-20T13:36:20.489Z,14.30
2023-03-20T13:38:54.861Z,16.30
2023-03-20T13:41:27.792Z,18.20
2023-03-20T13:43:59.355Z,15.00
2023-03-20T13:46:37.736Z,12.20
2023-03-20T13:49:14.338Z,14.20
2023-03-20T13:52:08.893Z,12.70
2023-03-20T13:54:58.973Z,15.10
2023-03-20T13:57:55.805Z,14.00
2023-03-20T14:00:42.521Z,11.30
2023-03-20T14:03:22.473Z,13.10
2023-03-20T14:05:52.123Z,15.20
2023-03-20T14:08:29.188Z,12.40
2023-03-20T14:11:22.468Z,11.60
2023-03-20T14:14:02.499Z,12.40
2023-03-20T14:16:34.838Z,11.60
2023-03-20T14:19:23.538Z,11.70
2023-03-20T14:21:57.542Z,14.10
2023-03-20T14:24:27.254Z,18.20
2023-03-20T14:27:01.621Z,14.90
2023-03-20T14:29:41.724Z,10.80
2023-03-20T14:32:13.358Z,13.70
2023-03-20T14:34:55.236Z,14.40
2023-03-20T14:37:38.189Z,16.00
2023-03-20T14:40:21.592Z,17.90
2023-03-20T14:43:10.216Z,11.70
2023-03-20T14:45:42.461Z,12.60
2023-03-20T14:48:27.525Z,13.50
2023-03-20T14:51:12.417Z,11.80
2023-03-20T14:53:41.347Z,12.60
2023-03-20T14:56:12.485Z,18.90
2023-03-20T14:59:00.371Z,16.20
2023-03-20T15:01:38.571Z,14.00
2023-03-20T15:04:19.364Z,14.30
2023-03-20T15:06:49.966Z,12.80
2023-03-20T15:09:19.335Z,12.40
2023-03-20T15:11:47.655Z,12.00
2023-03-20T15:14:24.381Z,12.00
2023-03-20T15:17:00.459Z,12.50
2023-03-20T15:19:32.313Z,14.80
2023-03-20T15:22:11.032Z,13.70
2023-03-20T15:24:39.881Z,14.80
2023-03-20T15:27:15.737Z,13.50
2023-03-20T15:29:47.791Z,12.40
2023-03-20T15:32:16.668Z,12.00
2023-03-20T15:34:47.795Z,10.40
2023-03-20T15:37:30.728Z,11.90
2023-03-20T15:40:04.310Z,9.70
2023-03-20T15:42:34.236Z,9.60
2023-03-20T15:45:02.787Z,10.80
2023-03-20T15:47:32.968Z,10.40
2023-03-20T15:50:02.998Z,10.20
2023-03-20T15:52:34.499Z,11.50
2023-03-20T15:55:08.408Z,10.30
2023-03-20T15:57:39.409Z,10.40
2023-03-20T16:00:17.035Z,11.10
2023-03-20T16:02:48.408Z,9.50
2023-03-20T16:05:17.626Z,11.70
2023-03-20T16:07:47.531Z,11.90
2023-03-20T16:10:19.459Z,12.60
2023-03-20T16:12:49.876Z,10.00
2023-03-20T16:15:18.504Z,12.50
2023-03-20T16:17:46.961Z,10.20
2023-03-20T16:20:16.872Z,11.70
2023-03-20T16:22:45.355Z,9.90
2023-03-20T16:25:15.969Z,12.30
2023-03-20T16:27:46.584Z,13.10
2023-03-20T16:30:17.971Z,10.70
2023-03-20T16:32:51.412Z,11.30
2023-03-20T16:35:22.492Z,10.70
2023-03-20T16:38:01.428Z,9.70
2023-03-20T16:40:32.995Z,10.20
2023-03-20T16:43:14.419Z,12.30
2023-03-20T16:45:54.800Z,9.80
2023-03-20T16:48:37.911Z,12.00
2023-03-20T16:51:26.460Z,10.90
2023-03-20T16:53:58.777Z,11.50
2023-03-20T16:56:34.326Z,11.10
2023-03-20T16:59:09.917Z,12.90
2023-03-20T17:01:44.853Z,12.70
2023-03-20T17:04:25.780Z,11.70
2023-03-20T17:07:00.454Z,10.40
2023-03-20T17:09:33.518Z,10.90
2023-03-20T17:12:09.209Z,10.60
2023-03-20T17:14:41.974Z,12.90
2023-03-20T17:17:19.577Z,12.40
2023-03-20T17:19:52.076Z,11.70
2023-03-20T17:22:22.488Z,14.10
2023-03-20T17:24:50.982Z,12.80
2023-03-20T17:27:20.993Z,12.50
2023-03-20T17:29:49.808Z,13.30
2023-03-20T17:32:20.158Z,12.00
2023-03-20T17:34:48.554Z,12.30
2023-03-20T17:37:27.152Z,11.30
2023-03-20T17:40:00.520Z,14.70
2023-03-20T17:42:31.595Z,12.70
2023-03-20T17:45:03.573Z,17.60
2023-03-20T17:47:46.237Z,13.40
2023-03-20T17:50:24.705Z,14.00
2023-03-20T17:52:54.009Z,12.60
2023-03-20T17:55:22.475Z,15.40
2023-03-20T17:57:50.867Z,10.90
2023-03-20T18:00:22.585Z,13.90
2023-03-20T18:02:51.331Z,12.00
2023-03-20T18:05:19.771Z,14.10
2023-03-20T18:07:48.273Z,11.90
2023-03-20T18:10:23.762Z,12.30
2023-03-20T18:12:52.542Z,12.40
2023-03-20T18:15:22.431Z,12.40
2023-03-20T18:17:51.317Z,11.90
2023-03-20T18:20:25.394Z,12.30
2023-03-20T18:22:53.891Z,13.60
2023-03-20T18:25:22.449Z,13.90
2023-03-20T18:27:53.981Z,10.90
2023-03-20T18:30:24.566Z,13.20
2023-03-20T18:32:52.800Z,9.50
2023-03-20T18:35:21.476Z,14.70
2023-03-20T18:37:49.831Z,12.90
2023-03-20T18:40:26.171Z,10.80
2023-03-20T18:42:55.058Z,11.70
2023-03-20T18:45:23.435Z,11.60
2023-03-20T18:48:12.017Z,10.50
2023-03-20T18:50:43.471Z,12.40
2023-03-20T18:53:12.760Z,16.00
2023-03-20T18:55:41.260Z,15.00
2023-03-20T18:58:20.464Z,12.50
2023-03-20T19:00:48.674Z,14.10
2023-03-20T19:03:17.993Z,13.40
2023-03-20T19:05:46.731Z,11.80
2023-03-20T19:08:16.137Z,15.20
2023-03-20T19:10:45.695Z,13.80
2023-03-20T19:13:19.008Z,12.10
2023-03-20T19:15:47.398Z,12.40
2023-03-20T19:18:17.852Z,13.90
2023-03-20T19:20:55.962Z,12.70
2023-03-20T19:23:29.055Z,16.00
2023-03-20T19:25:57.478Z,12.10
2023-03-20T19:28:38.644Z,12.40
2023-03-20T19:31:09.342Z,12.50
2023-03-20T19:33:38.778Z,12.30
2023-03-20T19:36:09.069Z,12.40
2023-03-20T19:38:37.654Z,12.80
2023-03-20T19:41:05.840Z,13.40
2023-03-20T19:43:42.583Z,12.50
2023-03-20T19:46:38.655Z,15.40
2023-03-20T19:49:30.652Z,14.70
2023-03-20T19:51:59.332Z,12.80
2023-03-20T19:56:27.562Z,15.00
2023-03-20T19:58:55.872Z,12.80
2023-03-20T20:01:25.361Z,14.10
2023-03-20T20:03:55.126Z,13.20
2023-03-20T20:06:31.044Z,14.30
2023-03-20T20:09:01.331Z,14.50
2023-03-20T20:11:29.897Z,15.00
2023-03-20T20:14:07.005Z,15.10
2023-03-20T20:16:37.547Z,16.00
2023-03-20T20:19:08.008Z,14.70
2023-03-20T20:24:27.131Z,15.90
2023-03-20T20:27:14.654Z,19.30
2023-03-20T20:29:53.125Z,15.20
2023-03-20T20:32:24.296Z,17.60
2023-03-20T20:40:32.756Z,16.90
2023-03-20T20:43:02.474Z,16.30
2023-03-20T20:45:43.771Z,16.70
2023-03-20T20:48:12.850Z,17.40
2023-03-20T20:50:41.937Z,23.60
2023-03-20T20:53:10.477Z,17.80
2023-03-20T20:55:39.196Z,18.20
2023-03-20T20:58:10.303Z,19.80
2023-03-20T21:00:50.736Z,20.40
2023-03-20T21:03:21.896Z,21.40
2023-03-20T21:05:52.597Z,19.30
2023-03-20T21:08:21.369Z,20.60
2023-03-20T21:10:55.442Z,19.40
2023-03-20T21:13:24.148Z,20.90
2023-03-20T21:16:00.152Z,18.00
2023-03-20T21:18:28.952Z,19.20
2023-03-20T21:21:05.823Z,19.60
2023-03-20T21:23:34.393Z,22.40
2023-03-20T21:26:02.995Z,21.10
2023-03-20T21:28:31.776Z,20.70
2023-03-20T21:33:48.630Z,19.00
2023-03-20T21:36:17.496Z,19.50
2023-03-20T21:41:34.664Z,19.50
2023-03-20T21:44:03.871Z,22.20
2023-03-20T21:55:52.131Z,22.90
2023-03-20T21:58:39.365Z,22.60
2023-03-20T22:01:21.719Z,21.50
2023-03-20T22:04:23.807Z,26.70
2023-03-20T22:12:49.826Z,26.80
2023-03-20T22:18:19.568Z,26.90
2023-03-20T22:24:14.895Z,23.60
2023-03-20T22:29:53.347Z,28.70
2023-03-20T22:35:46.807Z,25.30
2023-03-20T22:38:21.911Z,23.70
2023-03-20T22:41:13.283Z,27.30
2023-03-20T22:44:13.756Z,25.20
2023-03-20T22:46:22.743Z,25.40
2023-03-20T22:48:52.687Z,25.00
2023-03-20T22:51:28.706Z,23.20
2023-03-20T22:54:01.683Z,27.50
2023-03-20T22:56:31.248Z,23.40
2023-03-20T22:58:59.380Z,24.90
2023-03-20T23:01:29.014Z,30.50
2023-03-20T23:03:57.943Z,22.90
2023-03-20T23:06:27.451Z,25.40
2023-03-20T23:08:58.384Z,24.80
2023-03-20T23:11:28.596Z,25.30
2023-03-20T23:14:01.525Z,22.50
2023-03-20T23:16:31.341Z,24.90
2023-03-20T23:18:59.565Z,22.30
2023-03-20T23:21:32.335Z,21.60
2023-03-20T23:24:01.073Z,21.50
2023-03-20T23:26:29.437Z,21.30
2023-03-20T23:28:58.190Z,23.00
2023-03-20T23:31:27.139Z,21.20
2023-03-20T23:34:01.944Z,23.80
2023-03-20T23:36:36.852Z,23.50
2023-03-20T23:39:06.336Z,22.90
2023-03-20T23:42:29.270Z,23.10
2023-03-20T23:44:23.600Z,24.50
2023-03-20T23:46:52.125Z,23.30
2023-03-20T23:49:20.479Z,25.10
2023-03-20T23:51:48.521Z,24.30
2023-03-20T23:54:16.688Z,26.30
2023-03-20T23:56:45.295Z,23.20
2023-03-20T23:59:21.592Z,23.80
